Time;durP1;ratioP1;P1;durP2;ratioP2;P2;SDS_P1;SDS_P2;PMS_P1;PMS_P2;Temp;Humidity;BMP_temperature;BMP_pressure;BME280_temperature;BME280_humidity;BME280_pressure;Samples;Min_cycle;Max_cycle;Signal;HPM_P1;HPM_P2
2022/10/04 00:00:36;;;;;;;2.46;1.81;;;;;;;12.09;76.17;100412.31;462678;114;923299;-77
2022/10/04 00:01:45;;;;;;;3.18;1.71;;;;;;;12.10;76.11;100411.25;462464;114;922660;-78
2022/10/04 00:02:48;;;;;;;2.26;1.52;;;;;;;12.09;76.07;100409.58;462519;114;922539;-77
2022/10/04 00:04:26;;;;;;;3.93;1.77;;;;;;;12.09;76.20;100415.05;462666;114;922473;-78
2022/10/04 00:05:30;;;;;;;2.43;1.52;;;;;;;12.09;76.21;100412.31;462458;114;923021;-79
2022/10/04 00:06:35;;;;;;;2.29;1.52;;;;;;;12.10;76.33;100408.52;462610;114;922589;-79
2022/10/04 00:07:41;;;;;;;2.85;1.45;;;;;;;12.11;76.52;100415.66;462563;114;922974;-79
2022/10/04 00:08:47;;;;;;;3.01;1.56;;;;;;;12.13;76.70;100410.78;462271;114;930123;-78
2022/10/04 00:10:00;;;;;;;3.79;1.56;;;;;;;12.17;76.68;100408.45;461792;114;922553;-78
2022/10/04 00:11:09;;;;;;;2.95;1.40;;;;;;;12.20;76.62;100413.44;461936;114;922885;-79
2022/10/04 00:12:27;;;;;;;2.29;1.77;;;;;;;12.22;76.67;100415.95;462070;114;922773;-77
2022/10/04 00:13:32;;;;;;;3.34;1.55;;;;;;;12.25;76.70;100410.02;462525;114;923097;-78
2022/10/04 00:14:38;;;;;;;2.88;1.87;;;;;;;12.26;76.69;100411.69;453865;117;922624;-77
2022/10/04 00:15:41;;;;;;;2.17;1.47;;;;;;;12.26;76.63;100412.52;453897;116;922499;-77
2022/10/04 00:16:45;;;;;;;2.41;1.69;;;;;;;12.28;76.55;100415.03;454705;116;922807;-76
2022/10/04 00:18:12;;;;;;;4.25;1.66;;;;;;;12.29;76.61;100416.71;454600;116;923239;-79
2022/10/04 00:19:21;;;;;;;2.76;1.85;;;;;;;12.31;76.55;100422.77;457990;114;922870;-78
2022/10/04 00:20:52;;;;;;;3.42;1.86;;;;;;;12.31;76.48;100420.87;462490;114;922541;-77
2022/10/04 00:21:59;;;;;;;3.09;1.67;;;;;;;12.31;76.37;100418.14;462179;114;923061;-78
2022/10/04 00:23:22;;;;;;;2.53;1.87;;;;;;;12.29;76.26;100416.71;462474;114;930271;-78
2022/10/04 00:24:27;;;;;;;4.19;2.10;;;;;;;12.27;76.25;100418.83;462524;114;923054;-78
2022/10/04 00:25:35;;;;;;;2.16;1.62;;;;;;;12.25;76.36;100420.95;462544;114;922532;-78
2022/10/04 00:26:44;;;;;;;3.17;1.79;;;;;;;12.25;76.42;100415.48;462601;114;922822;-79
2022/10/04 00:28:16;;;;;;;4.05;2.04;;;;;;;12.24;76.43;100417.38;462583;114;922954;-78
2022/10/04 00:29:37;;;;;;;3.03;1.94;;;;;;;12.24;76.39;100422.04;462503;114;923492;-77
2022/10/04 00:30:40;;;;;;;3.03;1.59;;;;;;;12.24;76.37;100419.30;452608;116;922676;-78
2022/10/04 00:32:12;;;;;;;3.11;1.87;;;;;;;12.23;76.47;100418.47;458714;114;922524;-77
2022/10/04 00:33:22;;;;;;;3.07;1.72;;;;;;;12.23;76.66;100425.83;462514;114;922646;-79
2022/10/04 00:34:37;;;;;;;2.27;1.69;;;;;;;12.23;76.70;100421.20;423469;125;923024;-78
2022/10/04 00:35:46;;;;;;;2.82;1.43;;;;;;;12.23;76.64;100417.63;449013;116;922829;-77
2022/10/04 00:36:54;;;;;;;2.86;1.76;;;;;;;12.21;76.51;100423.31;454467;116;922520;-78
2022/10/04 00:38:00;;;;;;;2.53;1.63;;;;;;;12.21;76.56;100423.31;454465;116;923068;-78
2022/10/04 00:39:10;;;;;;;1.62;1.39;;;;;;;12.19;76.43;100421.86;454518;116;922621;-78
2022/10/04 00:40:15;;;;;;;;;;;;;;;12.19;76.28;100416.39;458255;116;922507;-78
2022/10/04 00:41:20;;;;;;;3.90;1.85;;;;;;;12.17;76.18;100418.55;454482;116;922627;-78
2022/10/04 00:42:27;;;;;;;2.63;1.48;;;;;;;12.13;76.16;100422.80;454592;116;922498;-78
2022/10/04 00:43:42;;;;;;;2.97;1.64;;;;;;;12.10;76.10;100416.72;454066;116;930344;-78
2022/10/04 00:45:20;;;;;;;3.41;1.64;;;;;;;12.07;76.16;100419.89;453170;116;922526;-77
2022/10/04 00:46:26;;;;;;;2.80;1.76;;;;;;;12.07;76.25;100424.55;454462;116;922861;-77
2022/10/04 00:47:36;;;;;;;3.65;1.94;;;;;;;12.06;76.15;100429.18;454543;116;922611;-77
2022/10/04 00:48:54;;;;;;;3.23;1.64;;;;;;;12.05;76.19;100430.23;454247;116;922664;-77
2022/10/04 00:50:16;;;;;;;3.02;1.82;;;;;;;12.06;76.27;100436.55;453595;116;922593;-78
2022/10/04 00:51:40;;;;;;;2.84;1.87;;;;;;;12.07;76.31;100430.83;456233;116;922874;-79
2022/10/04 00:52:47;;;;;;;3.27;1.72;;;;;;;12.08;76.31;100443.44;457206;116;923556;-77
2022/10/04 00:53:59;;;;;;;3.08;1.67;;;;;;;12.10;76.61;100435.85;457147;115;922921;-77
2022/10/04 00:55:06;;;;;;;5.58;2.27;;;;;;;12.13;76.67;100433.73;457237;116;922906;-77
2022/10/04 00:56:12;;;;;;;3.04;1.92;;;;;;;12.17;76.68;100432.20;457165;115;922965;-78
2022/10/04 00:57:18;;;;;;;2.72;1.92;;;;;;;12.19;76.70;100441.83;457237;116;922543;-78
2022/10/04 00:58:25;;;;;;;2.89;1.76;;;;;;;12.22;76.70;100433.19;457063;115;922844;-77
2022/10/04 00:59:43;;;;;;;3.05;1.56;;;;;;;12.24;76.71;100433.78;457824;116;922396;-79
2022/10/04 01:00:47;;;;;;;4.01;1.79;;;;;;;12.27;76.73;100432.50;457736;115;923218;-77
2022/10/04 01:01:54;;;;;;;2.23;1.37;;;;;;;12.28;76.68;100425.97;458005;116;922462;-77
2022/10/04 01:03:21;;;;;;;2.92;1.44;;;;;;;12.29;76.61;100430.37;457931;115;923000;-78
2022/10/04 01:04:40;;;;;;;2.29;1.68;;;;;;;12.30;76.53;100429.29;456981;115;922712;-77
2022/10/04 01:05:46;;;;;;;1.82;1.64;;;;;;;12.31;76.54;100420.03;457174;115;923006;-79
2022/10/04 01:06:50;;;;;;;3.29;1.96;;;;;;;12.31;76.41;100420.03;457040;115;922524;-77
2022/10/04 01:07:56;;;;;;;1.69;1.46;;;;;;;12.31;76.33;100420.03;457307;115;922994;-78
2022/10/04 01:09:03;;;;;;;1.93;1.59;;;;;;;12.31;76.31;100426.34;457120;116;930247;-79
2022/10/04 01:10:13;;;;;;;2.32;1.74;;;;;;;12.32;76.21;100418.97;456865;115;923002;-77
2022/10/04 01:11:19;;;;;;;5.03;1.72;;;;;;;12.33;76.24;100417.91;456597;115;923303;-79
2022/10/04 01:12:28;;;;;;;5.34;1.77;;;;;;;12.33;76.33;100417.91;457219;115;922633;-77
2022/10/04 01:13:38;;;;;;;2.12;1.81;;;;;;;12.36;76.48;100414.70;453909;115;922610;-79
2022/10/04 01:14:51;;;;;;;3.34;1.94;;;;;;;12.38;76.53;100415.32;457204;116;923052;-77
2022/10/04 01:16:03;;;;;;;3.51;1.80;;;;;;;12.41;76.68;100409.38;463951;112;923079;-76
2022/10/04 01:17:07;;;;;;;2.77;1.58;;;;;;;12.44;76.65;100414.40;459948;115;922532;-77
2022/10/04 01:18:22;;;;;;;2.92;1.68;;;;;;;12.45;76.57;100407.88;461611;115;923032;-77
2022/10/04 01:19:29;;;;;;;2.96;1.92;;;;;;;12.45;76.40;100413.34;461483;115;922777;-77
2022/10/04 01:20:35;;;;;;;3.15;1.81;;;;;;;12.44;76.18;100408.93;461161;115;923008;-77
2022/10/04 01:21:38;;;;;;;3.24;2.11;;;;;;;12.44;76.16;100408.93;461421;115;923096;-78
2022/10/04 01:22:45;;;;;;;3.34;1.83;;;;;;;12.43;76.22;100405.36;461579;114;922518;-78
2022/10/04 01:23:52;;;;;;;3.20;1.85;;;;;;;12.44;76.45;100403.46;461047;115;922853;-76
2022/10/04 01:24:56;;;;;;;5.47;2.18;;;;;;;12.45;76.32;100407.88;461450;115;922691;-77
2022/10/04 01:26:00;;;;;;;2.99;1.77;;;;;;;12.45;76.15;100408.71;461463;115;922642;-77
2022/10/04 01:27:03;;;;;;;3.33;1.91;;;;;;;12.46;76.30;100412.25;461425;114;930323;-78
2022/10/04 01:28:06;;;;;;;3.19;2.10;;;;;;;12.47;76.48;100405.72;461581;114;930304;-77
2022/10/04 01:29:27;;;;;;;3.22;2.30;;;;;;;12.49;76.45;100403.59;461570;115;922864;-77
2022/10/04 01:30:30;;;;;;;1.90;1.52;;;;;;;12.49;76.38;100396.23;461909;114;923010;-77
2022/10/04 01:31:36;;;;;;;3.56;2.21;;;;;;;12.50;76.45;100403.37;463513;114;922488;-78
2022/10/04 01:32:39;;;;;;;2.93;2.23;;;;;;;12.52;76.43;100397.66;465232;114;922450;-77
2022/10/04 01:33:42;;;;;;;3.08;2.11;;;;;;;12.51;76.47;100396.02;465434;114;922841;-78
2022/10/04 01:34:45;;;;;;;4.70;2.45;;;;;;;12.53;76.44;100397.43;465360;114;922920;-78
2022/10/04 01:35:47;;;;;;;4.97;2.43;;;;;;;12.54;76.46;100396.37;465410;113;922601;-78
2022/10/04 01:36:54;;;;;;;4.42;2.77;;;;;;;12.56;76.35;100398.05;465368;114;923014;-79
2022/10/04 01:37:57;;;;;;;5.58;3.28;;;;;;;12.56;76.24;100400.78;465174;114;922522;-77
2022/10/04 01:39:00;;;;;;;3.17;2.77;;;;;;;12.55;76.18;100399.94;465375;114;923473;-77
2022/10/04 01:40:04;;;;;;;4.78;3.18;;;;;;;12.55;76.37;100394.47;465379;114;922956;-78
2022/10/04 01:41:09;;;;;;;5.36;3.32;;;;;;;12.54;76.46;100396.37;465315;113;922487;-79
2022/10/04 01:42:22;;;;;;;4.71;3.39;;;;;;;12.56;76.55;100398.88;465164;114;930550;-78
2022/10/04 01:43:28;;;;;;;4.44;3.36;;;;;;;12.56;76.55;100398.88;465225;114;923041;-79
2022/10/04 01:44:34;;;;;;;5.50;3.83;;;;;;;12.55;76.21;100402.67;465125;114;922511;-78
2022/10/04 01:45:41;;;;;;;5.04;3.88;;;;;;;12.53;76.24;100404.80;464978;113;922544;-78
2022/10/04 01:46:45;;;;;;;5.80;4.26;;;;;;;12.52;76.27;100414.90;465179;114;922810;-77
2022/10/04 01:47:54;;;;;;;4.39;3.58;;;;;;;12.52;76.29;100406.70;465301;114;922488;-77
2022/10/04 01:49:01;;;;;;;10.28;4.50;;;;;;;12.52;76.43;100411.33;465161;114;930589;-78
2022/10/04 01:50:07;;;;;;;5.01;3.89;;;;;;;12.51;76.38;100406.95;465257;114;922668;-77
2022/10/04 01:51:16;;;;;;;5.17;4.04;;;;;;;12.50;76.49;100405.27;463878;113;922999;-78
2022/10/04 01:52:22;;;;;;;6.02;3.96;;;;;;;12.52;76.62;100403.13;464497;114;922602;-77
2022/10/04 01:53:31;;;;;;;4.46;3.76;;;;;;;12.53;76.82;100407.53;464442;114;922658;-78
2022/10/04 01:54:40;;;;;;;5.73;3.91;;;;;;;12.54;76.82;100409.20;465253;114;923020;-78
2022/10/04 01:55:47;;;;;;;5.55;3.93;;;;;;;12.54;76.56;100406.47;465181;114;922893;-78
2022/10/04 01:56:53;;;;;;;7.23;4.33;;;;;;;12.54;76.60;100406.47;464729;114;922624;-78
2022/10/04 01:58:03;;;;;;;7.21;4.43;;;;;;;12.56;76.78;100406.25;464952;114;922580;-77
2022/10/04 01:59:17;;;;;;;4.83;4.37;;;;;;;12.57;76.84;100411.46;465156;114;922417;-76
2022/10/04 02:00:23;;;;;;;6.58;4.69;;;;;;;12.59;76.79;100405.77;465131;114;922808;-76
2022/10/04 02:01:35;;;;;;;5.58;4.28;;;;;;;12.60;76.77;100402.81;465193;114;922527;-78
2022/10/04 02:02:54;;;;;;;7.08;5.13;;;;;;;12.60;76.89;100405.55;464283;114;922933;-77
2022/10/04 02:04:12;;;;;;;5.94;4.84;;;;;;;12.61;76.83;100409.95;465189;114;922856;-77
2022/10/04 02:05:19;;;;;;;6.49;4.89;;;;;;;12.63;76.71;100405.06;456682;114;923673;-78
2022/10/04 02:06:23;;;;;;;5.70;5.00;;;;;;;12.62;76.64;100411.62;464650;114;923177;-77
2022/10/04 02:07:29;;;;;;;7.51;5.22;;;;;;;12.63;76.72;100413.27;465303;114;922605;-77
2022/10/04 02:08:35;;;;;;;5.57;4.81;;;;;;;12.64;76.72;100409.48;465215;114;923028;-79
2022/10/04 02:09:42;;;;;;;8.33;4.89;;;;;;;12.66;76.93;100418.30;465221;114;922840;-76
2022/10/04 02:10:48;;;;;;;6.97;5.06;;;;;;;12.68;77.05;100399.73;465173;114;922582;-78
2022/10/04 02:11:53;;;;;;;5.87;4.98;;;;;;;12.71;77.05;100406.65;465169;114;922566;-77
2022/10/04 02:12:57;;;;;;;6.46;4.86;;;;;;;12.73;77.08;100402.63;465181;114;923334;-78
2022/10/04 02:14:00;;;;;;;5.97;4.43;;;;;;;12.76;77.12;100404.05;465322;114;922549;-77
2022/10/04 02:15:06;;;;;;;7.17;5.29;;;;;;;12.78;77.18;100410.13;465289;114;930423;-78
2022/10/04 02:16:10;;;;;;;7.12;5.06;;;;;;;12.79;77.25;100400.86;459330;113;923021;-77
2022/10/04 02:17:16;;;;;;;6.54;5.32;;;;;;;12.82;77.38;100414.06;457177;116;922526;-77
2022/10/04 02:18:21;;;;;;;6.12;4.95;;;;;;;12.83;77.32;100410.27;457122;116;922581;-77
2022/10/04 02:19:27;;;;;;;7.02;5.24;;;;;;;12.85;77.32;100413.58;457134;116;923009;-77
2022/10/04 02:20:31;;;;;;;7.41;5.37;;;;;;;12.87;77.12;100425.97;457052;116;922404;-77
2022/10/04 02:21:36;;;;;;;5.78;4.57;;;;;;;12.86;77.09;100413.36;457125;116;922531;-77
2022/10/04 02:22:40;;;;;;;4.63;3.88;;;;;;;12.86;76.80;100429.77;457076;116;922794;-76
2022/10/04 02:23:44;;;;;;;7.88;5.84;;;;;;;12.86;76.70;100424.30;457166;116;922529;-77
2022/10/04 02:24:48;;;;;;;6.06;5.10;;;;;;;12.87;76.62;100433.34;457132;116;923313;-76
2022/10/04 02:25:51;;;;;;;6.76;5.40;;;;;;;12.86;76.50;100431.67;457101;116;922617;-78
2022/10/04 02:26:54;;;;;;;6.49;5.04;;;;;;;12.85;76.41;100444.52;457231;116;922414;-78
2022/10/04 02:27:57;;;;;;;6.35;5.54;;;;;;;12.84;76.34;100442.88;457234;116;923060;-77
2022/10/04 02:29:00;;;;;;;6.29;4.68;;;;;;;12.84;76.34;100444.77;457170;116;922973;-78
2022/10/04 02:30:06;;;;;;;7.26;4.81;;;;;;;12.83;76.45;100448.57;459622;114;922813;-79
2022/10/04 02:33:56;;;;;;;7.47;5.27;;;;;;;12.87;77.32;100439.66;465239;113;922603;-78
2022/10/04 02:34:59;;;;;;;6.94;4.70;;;;;;;12.89;77.54;100429.33;465211;114;922997;-77
2022/10/04 02:36:03;;;;;;;6.18;3.99;;;;;;;12.90;77.67;100436.44;465367;114;922417;-77
2022/10/04 02:37:07;;;;;;;6.02;4.03;;;;;;;12.92;77.77;100434.31;465327;113;922768;-76
2022/10/04 02:38:17;;;;;;;4.64;3.71;;;;;;;12.94;77.90;100423.98;465372;113;923022;-79
2022/10/04 02:39:26;;;;;;;4.68;3.98;;;;;;;12.96;77.96;100423.72;465186;113;922956;-78
2022/10/04 02:40:32;;;;;;;5.49;3.78;;;;;;;12.98;78.13;100418.86;465177;113;922985;-79
2022/10/04 02:42:03;;;;;;;5.03;3.84;;;;;;;13.00;78.12;100422.21;465200;114;922988;-79
2022/10/04 02:43:15;;;;;;;5.84;3.87;;;;;;;13.02;78.26;100417.31;464002;113;922985;-77
2022/10/04 02:44:43;;;;;;;4.12;3.32;;;;;;;13.03;78.41;100418.98;465147;113;922964;-80
2022/10/04 02:45:49;;;;;;;6.44;3.95;;;;;;;13.05;78.48;100424.23;465143;114;922911;-77
2022/10/04 02:47:18;;;;;;;5.55;4.04;;;;;;;13.06;78.66;100431.39;465184;114;922941;-78
2022/10/04 02:48:41;;;;;;;5.61;3.18;;;;;;;13.07;78.75;100433.87;465208;114;923012;-78
2022/10/04 02:49:51;;;;;;;7.51;4.33;;;;;;;13.07;78.71;100428.39;464865;113;923092;-78
2022/10/04 02:50:57;;;;;;;7.83;4.08;;;;;;;13.09;78.85;100439.11;465095;114;923142;-79
2022/10/04 02:52:07;;;;;;;6.32;4.89;;;;;;;13.09;78.88;100430.91;464557;112;922586;-78
2022/10/04 02:53:33;;;;;;;5.11;4.01;;;;;;;13.09;78.91;100436.38;455476;116;922886;-78
2022/10/04 02:54:45;;;;;;;4.53;3.06;;;;;;;13.08;78.94;100443.75;455465;116;923121;-78
2022/10/04 02:55:48;;;;;;;4.60;3.24;;;;;;;13.09;79.07;100439.11;455419;116;922910;-77
2022/10/04 02:56:53;;;;;;;6.29;3.62;;;;;;;13.09;79.18;100445.42;455519;116;923027;-77
2022/10/04 02:57:57;;;;;;;4.85;3.39;;;;;;;13.11;79.28;100445.20;455500;116;930517;-77
2022/10/04 02:59:03;;;;;;;5.84;3.79;;;;;;;13.13;79.50;100451.28;455451;116;922797;-77
2022/10/04 03:00:24;;;;;;;4.49;3.36;;;;;;;13.14;79.47;100444.75;455419;116;924138;-79
2022/10/04 03:01:47;;;;;;;4.38;3.26;;;;;;;13.15;79.50;100441.78;455452;116;923157;-78
2022/10/04 03:03:18;;;;;;;5.30;3.95;;;;;;;13.18;79.59;100451.41;455433;116;922875;-78
2022/10/04 03:04:27;;;;;;;3.56;2.83;;;;;;;13.20;79.81;100441.08;455266;116;922543;-78
2022/10/04 03:05:39;;;;;;;4.25;3.26;;;;;;;13.34;79.96;100434.33;482375;110;946912;-76
2022/10/04 03:06:46;;;;;;;4.42;2.86;;;;;;;13.24;79.98;100440.36;473878;112;922736;-77
2022/10/04 03:07:50;;;;;;;4.43;3.40;;;;;;;13.26;80.03;100429.18;471675;112;922446;-76
2022/10/04 03:08:58;;;;;;;4.46;3.24;;;;;;;13.26;79.92;100430.02;465453;114;922583;-76
2022/10/04 03:10:03;;;;;;;4.19;2.86;;;;;;;13.27;79.98;100437.17;465319;114;923032;-77
2022/10/04 03:11:08;;;;;;;3.68;2.63;;;;;;;13.27;80.13;100439.07;465277;114;922831;-77
2022/10/04 03:12:13;;;;;;;5.48;3.30;;;;;;;13.28;80.03;100443.48;465353;114;922571;-77
2022/10/04 03:13:18;;;;;;;5.01;2.86;;;;;;;13.29;80.08;100439.65;465273;114;930450;-79
2022/10/04 03:14:25;;;;;;;4.04;2.70;;;;;;;13.30;80.10;100444.90;465309;114;930421;-78
2022/10/04 03:15:28;;;;;;;4.21;2.81;;;;;;;13.31;80.09;100448.47;465339;114;922476;-78
2022/10/04 03:16:37;;;;;;;4.20;2.71;;;;;;;13.31;80.15;100437.52;465567;114;922847;-78
2022/10/04 03:17:49;;;;;;;3.57;2.46;;;;;;;13.42;80.09;100442.18;481964;110;948860;-78
2022/10/04 03:18:55;;;;;;;3.21;2.61;;;;;;;13.31;80.15;100440.27;473354;112;924029;-78
2022/10/04 03:19:59;;;;;;;3.36;2.31;;;;;;;13.33;80.17;100435.39;473801;112;922304;-79
2022/10/04 03:21:03;;;;;;;3.68;2.72;;;;;;;13.33;80.26;100430.75;468448;112;922751;-79
2022/10/04 03:22:10;;;;;;;3.16;2.09;;;;;;;13.35;80.34;100434.06;465395;114;922982;-79
2022/10/04 03:23:16;;;;;;;3.56;2.24;;;;;;;13.37;80.32;100436.58;465378;114;922954;-77
2022/10/04 03:24:22;;;;;;;4.92;2.29;;;;;;;13.37;80.28;100442.05;465329;114;922566;-78
2022/10/04 03:25:29;;;;;;;2.49;1.96;;;;;;;13.39;80.30;100448.14;465343;114;922513;-78
2022/10/04 03:26:44;;;;;;;3.55;1.97;;;;;;;13.39;80.15;100448.14;465366;114;922571;-78
2022/10/04 03:27:48;;;;;;;2.80;2.07;;;;;;;13.39;80.10;100448.14;465346;114;922559;-80
2022/10/04 03:28:52;;;;;;;3.06;1.92;;;;;;;13.39;80.12;100445.41;465462;114;923060;-78
2022/10/04 03:29:55;;;;;;;3.38;1.89;;;;;;;13.39;80.24;100439.92;463922;114;922549;-78
2022/10/04 03:31:00;;;;;;;2.62;1.74;;;;;;;13.40;80.17;100447.05;460919;115;922494;-78
2022/10/04 03:32:04;;;;;;;2.68;2.18;;;;;;;13.40;80.09;100440.77;465200;114;922491;-77
2022/10/04 03:33:07;;;;;;;3.39;2.06;;;;;;;13.39;80.18;100439.92;465417;114;922541;-79
2022/10/04 03:34:22;;;;;;;3.54;2.23;;;;;;;13.41;80.10;100439.67;463586;114;922785;-79
2022/10/04 03:35:35;;;;;;;2.78;1.67;;;;;;;13.41;80.17;100440.50;452333;114;923054;-78
2022/10/04 03:36:39;;;;;;;3.18;2.02;;;;;;;13.41;80.24;100435.03;462051;114;923000;-78
2022/10/04 03:37:42;;;;;;;3.14;1.90;;;;;;;13.43;80.32;100432.06;462149;114;922896;-78
2022/10/04 03:38:47;;;;;;;2.97;1.84;;;;;;;13.44;80.35;100431.00;462154;114;930253;-79
2022/10/04 03:39:53;;;;;;;2.74;1.67;;;;;;;13.44;80.38;100425.52;462083;114;922454;-76
2022/10/04 03:40:58;;;;;;;2.74;1.67;;;;;;;13.44;80.38;100431.83;462077;114;923354;-79
2022/10/04 03:42:05;;;;;;;2.73;1.51;;;;;;;13.45;80.25;100429.93;462035;114;923092;-78
2022/10/04 03:43:11;;;;;;;2.51;1.58;;;;;;;13.45;80.22;100432.67;462029;114;922511;-77
2022/10/04 03:44:16;;;;;;;2.54;1.93;;;;;;;13.44;80.18;100439.21;462077;114;922432;-77
2022/10/04 03:45:22;;;;;;;2.09;1.54;;;;;;;13.43;80.20;100435.64;462077;114;922483;-78
2022/10/04 03:46:27;;;;;;;3.49;1.73;;;;;;;13.44;80.16;100439.21;462046;114;923033;-78
2022/10/04 03:47:32;;;;;;;2.99;1.88;;;;;;;13.44;80.25;100442.79;462082;114;922513;-79
2022/10/04 03:48:45;;;;;;;2.72;1.72;;;;;;;13.45;80.30;100438.14;462030;112;930392;-79
2022/10/04 03:49:48;;;;;;;2.14;1.44;;;;;;;13.46;80.37;100439.79;471040;112;922592;-78
2022/10/04 03:50:54;;;;;;;1.81;1.42;;;;;;;13.45;80.36;100441.72;471234;112;922895;-78
2022/10/04 03:51:57;;;;;;;1.77;1.41;;;;;;;13.46;80.26;100439.79;471415;112;922429;-78
2022/10/04 03:53:04;;;;;;;3.47;1.39;;;;;;;13.45;80.28;100441.72;457475;116;922656;-78
2022/10/04 03:54:10;;;;;;;2.44;1.45;;;;;;;13.46;80.39;100432.41;457081;116;922617;-77
2022/10/04 03:55:15;;;;;;;2.54;1.52;;;;;;;13.47;80.44;100434.08;457296;116;923162;-78
2022/10/04 03:56:27;;;;;;;3.54;1.37;;;;;;;13.50;80.54;100438.27;457295;116;922897;-78
2022/10/04 03:57:31;;;;;;;1.90;1.41;;;;;;;13.52;80.60;100439.68;457269;116;923222;-78
2022/10/04 03:58:35;;;;;;;2.66;1.25;;;;;;;13.53;80.50;100441.35;457484;116;922790;-76
2022/10/04 03:59:39;;;;;;;1.49;1.17;;;;;;;13.54;80.42;100443.03;457483;116;922707;-79
2022/10/04 04:00:54;;;;;;;2.37;1.20;;;;;;;13.55;80.39;100438.39;457427;116;922469;-78
2022/10/04 04:02:10;;;;;;;1.59;1.17;;;;;;;13.53;80.31;100444.09;456500;116;922578;-79
2022/10/04 04:03:16;;;;;;;1.44;1.28;;;;;;;13.54;80.29;100451.24;457295;116;922497;-77
2022/10/04 04:04:48;;;;;;;1.33;1.09;;;;;;;13.53;80.38;100444.09;460880;114;922745;-79
2022/10/04 04:05:58;;;;;;;1.86;0.95;;;;;;;13.54;80.48;100445.77;465078;114;922788;-77
2022/10/04 04:07:07;;;;;;;2.01;1.37;;;;;;;13.55;80.57;100444.70;465341;114;923003;-78
2022/10/04 04:08:28;;;;;;;1.07;0.98;;;;;;;13.56;80.48;100445.54;464427;114;922507;-77
2022/10/04 04:09:47;;;;;;;1.06;0.84;;;;;;;13.55;80.48;100444.70;465446;114;923034;-77
2022/10/04 04:10:53;;;;;;;1.50;1.05;;;;;;;13.55;80.57;100439.22;465247;113;922896;-79
2022/10/04 04:11:58;;;;;;;1.65;1.11;;;;;;;13.56;80.64;100445.54;465346;114;922501;-77
2022/10/04 04:13:05;;;;;;;1.87;1.17;;;;;;;13.56;80.56;100443.60;465312;114;922670;-78
2022/10/04 04:14:17;;;;;;;1.72;0.95;;;;;;;13.57;80.57;100436.22;431836;122;923223;-78
2022/10/04 04:15:20;;;;;;;1.47;0.99;;;;;;;13.57;80.60;100442.54;453605;114;922993;-78
2022/10/04 04:16:25;;;;;;;2.19;1.05;;;;;;;13.58;80.65;100446.95;465403;114;922532;-78
2022/10/04 04:17:39;;;;;;;1.48;1.09;;;;;;;13.59;80.45;100451.36;465314;114;923172;-79
2022/10/04 04:18:45;;;;;;;1.89;1.40;;;;;;;13.59;80.34;100458.75;465351;114;922634;-79
2022/10/04 04:19:48;;;;;;;2.04;1.06;;;;;;;13.57;80.16;100458.97;465396;114;923061;-79
2022/10/04 04:20:55;;;;;;;1.83;1.16;;;;;;;13.57;80.16;100467.19;465495;114;922725;-79
2022/10/04 04:21:58;;;;;;;2.02;1.43;;;;;;;13.55;80.14;100477.57;465336;114;923046;-78
2022/10/04 04:23:05;;;;;;;2.31;1.56;;;;;;;13.54;79.91;100486.86;465517;114;922512;-78
2022/10/04 04:24:22;;;;;;;1.74;1.38;;;;;;;13.52;79.78;100496.37;462352;114;922539;-77
2022/10/04 04:25:27;;;;;;;2.48;1.60;;;;;;;13.49;79.87;100489.47;465326;114;922431;-77
2022/10/04 04:26:48;;;;;;;4.09;1.83;;;;;;;13.48;80.16;100479.58;465316;114;922471;-78
2022/10/04 04:27:54;;;;;;;3.18;1.88;;;;;;;13.47;80.20;100483.38;465252;114;922699;-77
2022/10/04 04:29:13;;;;;;;3.48;2.09;;;;;;;13.47;80.46;100485.28;464800;114;922599;-78
2022/10/04 04:30:17;;;;;;;4.62;2.59;;;;;;;13.46;80.68;100489.92;458430;114;922612;-78
2022/10/04 04:31:26;;;;;;;3.06;1.65;;;;;;;13.46;80.90;100483.61;457937;114;922512;-77
2022/10/04 04:33:59;;;;;;;3.24;2.09;;;;;;;13.58;81.18;100484.47;476741;110;946918;-76
2022/10/04 04:35:09;;;;;;;3.31;1.98;;;;;;;13.44;81.20;100478.39;466456;113;922642;-76
2022/10/04 04:36:16;;;;;;;2.43;1.68;;;;;;;13.43;81.34;100468.50;471199;112;923018;-77
2022/10/04 04:37:19;;;;;;;2.62;1.66;;;;;;;13.44;81.53;100474.81;471836;112;922845;-76
2022/10/04 04:38:24;;;;;;;2.82;1.88;;;;;;;13.43;81.63;100473.14;471858;112;923050;-77
2022/10/04 04:39:43;;;;;;;3.39;2.21;;;;;;;13.43;81.86;100484.94;471847;112;922573;-77
2022/10/04 04:40:47;;;;;;;2.92;1.71;;;;;;;13.43;81.89;100476.72;471768;112;922909;-77
2022/10/04 04:41:49;;;;;;;2.48;1.78;;;;;;;13.43;81.99;100473.98;471998;112;923015;-77
2022/10/04 04:42:57;;;;;;;2.89;1.65;;;;;;;13.44;82.08;100472.08;471938;112;922891;-77
2022/10/04 04:44:01;;;;;;;2.84;1.74;;;;;;;13.45;82.14;100471.02;471780;112;930341;-78
2022/10/04 04:45:17;;;;;;;2.63;1.81;;;;;;;13.45;82.21;100471.85;471989;112;922501;-77
2022/10/04 04:46:21;;;;;;;1.99;1.62;;;;;;;13.46;82.27;100470.75;471774;112;930300;-78
2022/10/04 04:47:45;;;;;;;2.31;1.73;;;;;;;13.49;82.41;100463.98;471234;112;923166;-78
2022/10/04 04:48:52;;;;;;;1.59;1.42;;;;;;;13.50;82.44;100476.61;471888;112;922659;-77
2022/10/04 04:49:57;;;;;;;3.01;1.70;;;;;;;13.52;82.58;100461.59;471635;112;922485;-78
2022/10/04 04:51:01;;;;;;;2.01;1.72;;;;;;;13.54;82.80;100466.84;471805;112;923000;-78
2022/10/04 04:52:04;;;;;;;2.51;1.74;;;;;;;13.58;82.66;100465.29;471108;112;922867;-77
2022/10/04 04:53:17;;;;;;;2.77;1.59;;;;;;;13.58;82.74;100466.12;462994;114;930314;-78
2022/10/04 04:54:22;;;;;;;3.24;1.57;;;;;;;13.60;82.64;100474.95;462923;114;930359;-76
2022/10/04 04:55:29;;;;;;;2.18;1.74;;;;;;;13.63;82.77;100476.37;463028;114;922507;-77
2022/10/04 04:56:34;;;;;;;2.23;1.63;;;;;;;13.64;82.83;100470.66;460046;114;922593;-78
2022/10/04 04:57:38;;;;;;;2.31;1.38;;;;;;;13.68;82.98;100477.32;463184;114;922793;-77
2022/10/04 04:58:45;;;;;;;2.89;1.82;;;;;;;13.71;82.90;100479.61;463037;114;930275;-77
2022/10/04 04:59:51;;;;;;;2.73;1.62;;;;;;;13.74;82.99;100484.59;463054;114;922605;-77
2022/10/04 05:01:00;;;;;;;2.83;1.73;;;;;;;13.77;83.04;100492.36;462978;114;923311;-78
2022/10/04 05:02:03;;;;;;;1.83;1.56;;;;;;;13.83;82.96;100490.58;463033;114;922789;-77
2022/10/04 05:03:10;;;;;;;3.33;1.82;;;;;;;13.86;82.91;100489.25;463219;114;922551;-77
2022/10/04 05:04:17;;;;;;;1.58;1.42;;;;;;;13.89;83.01;100492.36;461852;114;922960;-77
2022/10/04 05:05:24;;;;;;;2.53;1.55;;;;;;;13.91;82.99;100492.10;463028;114;922493;-77
2022/10/04 05:06:29;;;;;;;2.54;1.78;;;;;;;13.94;83.02;100491.64;463066;114;922746;-77
2022/10/04 05:07:32;;;;;;;2.17;1.61;;;;;;;13.97;82.98;100486.50;463032;114;922663;-78
2022/10/04 05:08:35;;;;;;;2.72;1.86;;;;;;;14.00;82.92;100490.69;463259;114;922697;-77
2022/10/04 05:09:41;;;;;;;3.04;1.96;;;;;;;14.01;82.95;100484.94;462623;114;923795;-77
2022/10/04 05:11:06;;;;;;;3.15;1.48;;;;;;;14.03;83.00;100492.94;463230;114;922429;-77
2022/10/04 05:12:19;;;;;;;3.20;1.79;;;;;;;14.05;83.00;100486.16;455659;116;922696;-77
2022/10/04 05:13:53;;;;;;;1.68;1.38;;;;;;;14.18;83.04;100482.30;482371;110;946815;-77
2022/10/04 05:14:56;;;;;;;2.49;1.67;;;;;;;14.07;82.92;100485.89;473769;112;922528;-77
2022/10/04 05:16:01;;;;;;;2.98;1.69;;;;;;;14.07;82.92;100485.89;464786;112;922553;-77
2022/10/04 05:17:05;;;;;;;8.10;1.65;;;;;;;14.08;82.98;100490.31;457089;116;922558;-77
2022/10/04 05:18:20;;;;;;;2.85;1.88;;;;;;;14.08;82.92;100485.66;457264;116;922584;-79
2022/10/04 05:19:29;;;;;;;2.23;1.63;;;;;;;14.10;82.97;100490.91;457154;116;923010;-77
2022/10/04 05:20:33;;;;;;;2.98;1.75;;;;;;;14.10;82.94;100496.39;447964;116;922894;-77